Anza Borrego Desert State Park, California Weather observations

Data are for 10 minute period ending at time listed.
 Day   Time   Solar   Ave.   Ave.  Ave.  Vector  Max.   Baro.   Total    
  of    of     Rad.   Air    Rel.  Wind   Wind   Wind  Press.  Precip.   
Year   Day            Temp.  Hum.  Speed  Dir.   Gust                    
2017   (PST)  Kw/m2    F      %     mph   deg.    mph    mb.     in.     
-------------------------------------------------------------------------
  54    9:10   0.50   57.0    38    5.7   148     9.5   985.0    0.00 
  54    9:20   0.53   57.5    38    5.3   140    10.1   985.1    0.00 
  54    9:30   0.56   57.5    37    7.0   150    11.5   985.0    0.00 
  54    9:40   0.58   57.8    37    6.5   158    12.8   985.1    0.00 
  54    9:50   0.61   58.1    36    5.6   144     9.5   985.1    0.00 
  54   10:00   0.63   58.1    36    6.9   127    11.9   985.0    0.00 
  54   10:10   0.65   58.2    36    8.3   140    12.1   985.1    0.00 
  54   10:20   0.67   58.4    35    9.2   123    13.4   985.1    0.00 
  54   10:30   0.69   58.8    34    7.4   129    13.2   985.0    0.00 
  54   10:40   0.71   59.0    32    8.1   111    12.5   985.0    0.00 
  54   10:50   0.73   59.0    31   10.6   102    15.3   984.9    0.00 
  54   11:00   0.74   59.5    32    6.9   103    11.5   984.8    0.00 
  54   11:10   0.75   60.1    31    5.7   100    14.6   984.7    0.00 
  54   11:20   0.76   60.8    30    5.0   106    13.5   984.6    0.00 
  54   11:30   0.77   61.2    29    3.9   105    11.5   984.5    0.00 
  54   11:40   0.78   60.7    30    4.9   166    11.6   984.4    0.00 
  54   11:50   0.78   61.2    29    4.8   145    11.5   984.3    0.00 
  54   12:00   0.79   61.2    29    6.2   143    12.0   984.1    0.00 
  54   12:10   0.79   61.7    29    5.7   122    10.5   984.0    0.00 
  54   12:20   0.78   61.5    29    6.6   120    12.2   983.8    0.00 
  54   12:30   0.78   61.5    28    3.8   111     9.0   983.8    0.00 
  54   12:40   0.78   62.5    28    4.5    98    12.9   983.6    0.00 
  54   12:50   0.76   62.1    28    5.7   100    13.7   983.4    0.00 
  54   13:00   0.75   62.1    28    7.1   106     9.9   983.2    0.00 
  54   13:10   0.71   62.9    28    4.9   102     9.1   983.1    0.00 
  54   13:20   0.73   63.1    27    5.1    90     8.8   983.0    0.00 
  54   13:30   0.71   63.2    27    6.6    86    11.8   982.9    0.00 
  54   13:40   0.70   63.8    27    3.9    30     7.8   982.8    0.00 
  54   13:50   0.68   64.5    26    4.0    48    16.2   982.6    0.00 
  54   14:00   0.66   64.0    26   11.0   299    21.8   982.6    0.00 
  54   14:10   0.64   63.5    26   10.7   313    15.8   982.6    0.00 
  54   14:20   0.62   63.0    27   13.7   297    20.2   982.5    0.00 
  54   14:30   0.59   63.0    27   13.5   296    18.6   982.5    0.00 
  54   14:40   0.56   62.9    28   13.7   292    22.1   982.5    0.00 
  54   14:50   0.54   62.6    28   11.3   291    20.8   982.5    0.00 
  54   15:00   0.51   63.1    29   10.0   267    16.1   982.5    0.00 
  54   15:10   0.48   62.9    30   11.6   253    23.2   982.6    0.00 
  54   15:20   0.45   62.2    32   10.5   249    18.3   982.7    0.00 
  54   15:30   0.41   61.8    32   11.4   258    19.6   982.8    0.00 
  54   15:40   0.38   61.1    33   10.9   262    18.0   983.0    0.00 
  54   15:50   0.35   61.2    33    8.8   269    21.9   983.1    0.00 
  54   16:00   0.31   60.7    34    9.3   243    22.4   983.2    0.00 
  54   16:10   0.28   59.9    35   10.9   250    20.0   983.3    0.00 
  54   16:20   0.24   59.6    34   13.3   236    26.5   983.3    0.00 
  54   16:30   0.20   58.6    36   14.0   235    24.2   983.3    0.00 
  54   16:40   0.17   58.0    36   14.8   239    21.9   983.3    0.00 
  54   16:50   0.08   56.9    37   17.1   234    25.6   983.3    0.00 
  54   17:00   0.01   55.5    39   13.8   234    20.2   983.2    0.00 
  54   17:10   0.01   55.1    38   15.9   228    25.3   983.2    0.00 
  54   17:20   0.01   54.8    38   14.9   230    24.3   983.1    0.00 
  54   17:30   0.01   54.6    38   10.5   241    17.8   983.1    0.00 
  54   17:40   0.00   54.6    38    5.4   278    12.0   983.3    0.00 
  54   17:50   0.00   54.5    38    3.3   292     9.6   983.4    0.00 
  54   18:00   0.00   54.5    37    2.5   103     5.0   983.4    0.00 
  54   18:10   0.00   54.7    36    4.5    29    15.9   983.4    0.00 
  54   18:20   0.00   54.5    37    5.7   316    15.1   983.5    0.00 
  54   18:30   0.00   54.2    38    3.5   249    11.5   983.7    0.00 
  54   18:40   0.00   53.2    39    1.7   357     4.7   983.8    0.00 
  54   18:50   0.00   52.5    41    6.8   236    12.1   983.8    0.00 
  54   19:00   0.00   52.4    41    5.8   311    11.2   984.0    0.00 
  54   19:10   0.00   52.4    41    4.0   256     8.6   984.1    0.00 
  54   19:20   0.00   52.6    40    5.7   195     9.6   984.1    0.00 
  54   19:30   0.00   51.7    43    4.5   236     8.2   984.1    0.00 
  54   19:40   0.00   51.5    42    2.0   191     5.8   984.3    0.00 
  54   19:50   0.00   51.9    42    2.1    59     5.8   984.3    0.00 
  54   20:00   0.00   50.9    44    2.4   167     3.4   984.2    0.00 
  54   20:10   0.00   49.5    47    3.2   194     4.3   984.4    0.00 
  54   20:20   0.00   49.9    45    1.6   123     3.6   984.5    0.00 
  54   20:30   0.00   48.2    50    1.6   147     4.1   984.6    0.00 
  54   20:40   0.00   47.3    52    3.3   299     6.1   984.8    0.00 
  54   20:50   0.00   48.5    49    2.1    13     3.5   984.9    0.00 
  54   21:00   0.00   47.9    50    1.5    34     2.6   984.8    0.00 
  54   21:10   0.00   45.4    58    2.3   165     3.8   984.8    0.00 
  54   21:20   0.00   44.7    58    3.2   260     4.3   984.8    0.00 
  54   21:30   0.00   45.4    57    2.3   313     4.2   984.9    0.00 
  54   21:40   0.00   44.5    60    2.2   348     4.6   985.0    0.00 
  54   21:50   0.00   43.8    61    3.4   221     5.1   985.0    0.00 
  54   22:00   0.00   43.0    64    3.8   216     6.2   985.1    0.00 
  54   22:10   0.00   42.6    65    3.0   245     4.2   985.1    0.00 
  54   22:20   0.00   41.4    69    3.5   241     5.3   985.1    0.00 
  54   22:30   0.00   42.1    67    2.3   260     5.4   985.2    0.00 
  54   22:40   0.00   42.2    66    3.2   239     4.5   985.3    0.00 
  54   22:50   0.00   41.9    67    1.7   238     3.5   985.3    0.00 
  54   23:00   0.00   40.7    70    3.2   227     4.3   985.4    0.00 
  54   23:10   0.00   40.7    71    5.0   258     6.7   985.5    0.00 
  54   23:20   0.00   42.0    67    4.4   272     5.9   985.5    0.00 
  54   23:30   0.00   41.6    68    2.7   251     4.2   985.5    0.00 
  54   23:40   0.00   40.7    70    4.9   225     6.6   985.6    0.00 
  54   23:50   0.00   41.2    69    6.5   236     8.0   985.7    0.00 
  55    0:00   0.00   41.7    66    6.3   242     7.4   985.7    0.00 
  55    0:10   0.00   41.5    68    6.6   251     7.9   985.7    0.00 
  55    0:20   0.00   42.4    64    6.7   247     7.7   985.7    0.00 
  55    0:30   0.00   43.5    61    7.3   242     8.4   985.8    0.00 
  55    0:40   0.00   42.4    64    7.0   242     8.5   985.7    0.00 
  55    0:50   0.00   41.7    66    4.6   255     7.2   985.7    0.00 
  55    1:00   0.00   42.4    63    4.9   234     6.9   985.8    0.00 
  55    1:10   0.00   42.1    64    6.4   231     8.2   985.8    0.00 
  55    1:20   0.00   42.6    62    6.4   242     8.6   985.8    0.00 
  55    1:30   0.00   43.1    60    5.4   223     8.0   985.8    0.00 
  55    1:40   0.00   43.6    59    4.7   249     7.0   985.8    0.00 
  55    1:50   0.00   41.3    66    4.5   233     5.8   985.7    0.00 
  55    2:00   0.00   41.7    64    3.7   238     5.1   985.8    0.00 
  55    2:10   0.00   40.7    67    4.8   207     6.1   985.8    0.00 
  55    2:20   0.00   40.6    68    3.4   220     4.8   985.7    0.00 
  55    2:30   0.00   40.1    69    3.3   203     3.9   985.7    0.00 
  55    2:40   0.00   40.2    68    3.2   231     4.5   985.8    0.00 
  55    2:50   0.00   40.4    68    3.3   257     4.5   985.9    0.00 
  55    3:00   0.00   40.2    69    4.3   260     5.2   985.9    0.00 
  55    3:10   0.00   39.9    69    5.8   235     6.9   985.9    0.00 
  55    3:20   0.00   38.8    72    5.6   227     6.3   985.9    0.00 
  55    3:30   0.00   38.5    73    5.3   228     6.9   985.8    0.00 
  55    3:40   0.00   39.5    69    4.1   221     5.5   986.0    0.00 
  55    3:50   0.00   38.7    70    3.8   235     4.8   986.0    0.00 
  55    4:00   0.00   39.4    67    3.0   300     3.9   985.9    0.00 
  55    4:10   0.00   39.1    70    0.9    66     2.3   986.2    0.00 
  55    4:20   0.00   36.9    75    2.4   222     3.4   986.3    0.00 
  55    4:30   0.00   37.7    73    4.2   254     5.6   986.4    0.00 
  55    4:40   0.00   38.8    70    4.2   267     6.1   986.4    0.00 
  55    4:50   0.00   41.6    63    2.0   313     2.9   986.4    0.00 
  55    5:00   0.00   40.5    64    1.8   204     3.7   986.6    0.00 
  55    5:10   0.00   40.2    64    3.3   262     3.9   986.6    0.00 
  55    5:20   0.00   38.2    70    6.0   262     7.7   986.7    0.00 
  55    5:30   0.00   39.4    67    7.3   247     8.9   986.8    0.00 
  55    5:40   0.00   39.2    68    6.9   250     8.3   986.8    0.00 
  55    5:50   0.00   39.4    66    6.9   250     8.0   986.9    0.00 
  55    6:00   0.00   39.1    66    7.2   259     8.0   987.1    0.00 
  55    6:10   0.00   38.5    67    6.1   251     7.2   987.3    0.00 
  55    6:20   0.00   39.3    65    4.7   254     6.4   987.6    0.00 
  55    6:30   0.00   40.8    62    3.9   249     5.1   987.7    0.00 
  55    6:40   0.02   40.9    61    4.8   235     7.0   987.9    0.00 
  55    6:50   0.04   41.2    62    6.5   236     7.5   988.0    0.00 
  55    7:00   0.07   43.5    58    6.1   241     7.2   988.1    0.00 
  55    7:10   0.10   46.4    52    5.4   243     7.1   988.3    0.00 
  55    7:20   0.14   49.0    49    3.5   220     5.0   988.4    0.00 
  55    7:30   0.17   51.7    47    1.5   113     3.9   988.6    0.00 
  55    7:40   0.20   53.5    44    0.6    50     1.5   988.8    0.00 
  55    7:50   0.24   53.9    43    1.4   291     2.8   989.0    0.00 
  55    8:00   0.27   54.9    41    0.4   258     1.8   989.1    0.00 
  55    8:10   0.31   59.2    33    0.2   251     1.7   989.4    0.00 
  55    8:20   0.34   57.9    36    2.1   105     5.6   989.6    0.00 
  55    8:30   0.38   53.3    48    3.3    91     5.1   989.9    0.00 
  55    8:40   0.41   53.5    46    1.7   102     3.7   990.1    0.00 
  55    8:50   0.44   56.0    37    1.7   101     3.4   990.2    0.00 
  55    9:00   0.48   56.6    35    1.6   116     3.8   990.3    0.00 

Return to Anza Borrego Desert State Park graphs page.


Western Regional Climate Center,wrcc@dri.edu